Aeroporto :
LOGIN :

Iscrizione | Disclaimer

   EN    FR    IT 

 










Sommario :    VFR   VFR Marginale   IFR   IFR Intensivo   IFR Molto Intensivo
Visibilità : 
Base nubi : 
>= 8 km
>= 3000ft
5 / 8 km
1000 / 3000 ft
1500m / 5 km
500 / 1000 ft
800 / 1500m
200 / 500 ft
< 800m
< 200 ft
Simboli :   Temporali  Nebbia  Neve Forte  Precipitazioni Forti  Vento > 20 kt
SIGMETs :   Varie  Temporali  Ghiacco  Turbolenza  Onda orograficha  Ceneri Vulcaniche






- Altitudine del aeroporto : 640 ft
- Codice IATA : AOC


EDAC - Altenburg-Nobitz

ULTIMO METAR :
  • 231350Z 29006KT 9999 VCTS FEW056CB 24/13 Q1006

METARs OBSOLETI :
  • 231320Z 28004KT 240V320 9999 FEW061CB 24/12 Q1005
  • 231250Z 25008KT 230V290 9999 FEW065CB 24/11 Q1006
  • 231220Z 26008KT 230V290 9999 FEW065CB 25/12 Q1006
  • 231150Z 27004KT 210V320 CAVOK 25/13 Q1006

TAF TAF EDAC
Valido dal 23 a 15 ore il 24 a 00 ore UTC


231400Z 2315/2324 29006KT CAVOK
BECMG 2316/2319 23005KT



MetMap, La meteo Aeronautica in un colpo d'occhio ! - Copyright ORBIFLY Dicembre 2007 - Disclaimer

ORBIFLY MET'MAP TEAM :

Programmazione e sviluppo : Alexandra Zaïnal
Concezione : Baudouin d'Aumeries
Aiuto per la programmazione : Marc-Olivier Méhu
Supporto tecnico e logistico : Manuel Goepfert
Aiuto per la traduzione : Arnaldo La Scala

Contatto : metmap@orbifly.com




FONTI E CREDITI :

   NOAA